Aeroboteco Virtual Airlines! Uma nuvem a frente.



 INFORMAÇÕES METEOROLÓGICAS
METAR FOR KMHP
ADDS - METARS form results

(1838 UTC 24 January 2021)
Data provider http://aviationweather.gov/metar/data/
 
METAR text: KMHP 241810Z AUTO 11006KT 10SM SCT038 OVC049 15/07 A3019 RMK AO2 T01480070
Conditions at: KMHP (METTER , GA, US) observed 1810 UTC 24 January 2021
Temperature: 14.8°C (59°F)
Dewpoint: 7.0°C (45°F) [RH = 60%]
Pressure (altimeter): 30.19 inches Hg (1022.4 mb)
Winds: from the ESE (110 degrees) at 7 MPH (6 knots; 3.1 m/s)
Visibility: 10 or more miles (16+ km)
Ceiling: 4900 feet AGL
Clouds: scattered clouds at 3800 feet AGL
overcast cloud deck at 4900 feet AGL
Weather: automated observation with no human augmentation;
there may or may not be significant weather present at this time

METAR text: KMHP 241750Z AUTO 11005KT 10SM OVC049 15/07 A3020 RMK AO2 T01480066 10151 20066
Conditions at: KMHP (METTER , GA, US) observed 1750 UTC 24 January 2021
Temperature: 14.8°C (59°F)
Dewpoint: 6.6°C (44°F) [RH = 58%]
Pressure (altimeter): 30.20 inches Hg (1022.8 mb)
Winds: from the ESE (110 degrees) at 6 MPH (5 knots; 2.6 m/s)
Visibility: 10 or more miles (16+ km)
Ceiling: 4900 feet AGL
Clouds: overcast cloud deck at 4900 feet AGL
Weather: automated observation with no human augmentation;
there may or may not be significant weather present at this time

 MAPA DO AEROPORTO

 INFORMAÇÕES DA PISTA
Pista 10 Tamanho da pista 3612 ft Largura da pista 75 ft
Elevação da pista 195 ft Ranhura da pista 0 ft Proa da pista 93
Pista 28 Tamanho da pista 3612 ft Largura da pista 75 ft
Elevação da pista 196 ft Ranhura da pista 0 ft Proa da pista 273

 FREQUÊNCIAS DO AEROPORTO
Tipo CNTR Nome JACKSONVIL Frequência 132.5 MHZ
Tipo UNIC Nome CTAF/UNICO Frequência 123 MHZ

 AUXÍLIOS DE NAVEGAÇÃO PRÓXIMOS AO AEROPORTO